Time;durP1;ratioP1;P1;durP2;ratioP2;P2;SDS_P1;SDS_P2;PMS_P1;PMS_P2;Temp;Humidity;BMP_temperature;BMP_pressure;BME280_temperature;BME280_humidity;BME280_pressure;Samples;Min_cycle;Max_cycle;Signal;HPM_P1;HPM_P2
2021/10/28 00:14:13;;;;;;;;;;;;;;;21.54;63.45;101242.22;7289176;19;152111;-51
2021/10/28 00:16:42;;;;;;;;;;;;;;;21.53;63.28;101232.94;7288420;19;152769;-50
2021/10/28 00:19:09;;;;;;;;;;;;;;;21.54;63.49;101230.97;7288135;19;154220;-51
2021/10/28 00:21:37;;;;;;;;;;;;;;;21.55;63.60;101227.03;7295766;19;151841;-50
2021/10/28 00:24:05;;;;;;;;;;;;;;;21.54;63.47;101217.75;7287396;19;154266;-50
2021/10/28 00:26:33;;;;;;;;;;;;;;;21.54;63.56;101219.72;7289271;19;151738;-50
2021/10/28 00:29:02;;;;;;;;;;;;;;;21.54;63.80;101216.91;7288243;19;153336;-50
2021/10/28 00:31:31;;;;;;;;;;;;;;;21.52;63.65;101214.44;7286549;19;153233;-50
2021/10/28 00:33:58;;;;;;;;;;;;;;;21.52;63.44;101207.97;7287944;19;152091;-51
2021/10/28 00:36:26;;;;;;;;;;;;;;;21.51;63.38;101215.56;7287979;19;152640;-50
2021/10/28 00:38:53;;;;;;;;;;;;;;;21.48;63.62;101204.97;7286517;19;153429;-50
2021/10/28 00:41:22;;;;;;;;;;;;;;;21.48;63.76;101204.13;7287308;19;152030;-50
2021/10/28 00:43:50;;;;;;;;;;;;;;;21.47;63.69;101208.91;7293709;19;153440;-50
2021/10/28 00:46:18;;;;;;;;;;;;;;;21.46;63.69;101207.22;7286891;19;151863;-51
2021/10/28 00:48:46;;;;;;;;;;;;;;;21.45;63.63;101197.13;7286915;19;153222;-51
2021/10/28 00:51:13;;;;;;;;;;;;;;;21.43;63.64;101181.72;7285730;19;153484;-50
2021/10/28 00:53:41;;;;;;;;;;;;;;;21.42;63.81;101180.03;7287194;19;151969;-52
2021/10/28 00:56:08;;;;;;;;;;;;;;;21.40;64.11;101179.50;7288741;19;151715;-50
2021/10/28 00:58:35;;;;;;;;;;;;;;;21.39;64.21;101169.44;7286353;19;152434;-51
2021/10/28 01:01:03;;;;;;;;;;;;;;;21.35;64.09;101168.38;7285806;19;152273;-50
2021/10/28 01:03:30;;;;;;;;;;;;;;;21.34;64.22;101164.72;7293228;19;152667;-51
2021/10/28 01:05:57;;;;;;;;;;;;;;;21.31;64.18;101176.56;7287146;19;151734;-50
2021/10/28 01:08:25;;;;;;;;;;;;;;;21.27;64.04;101158.66;7288897;19;153094;-51
2021/10/28 01:10:55;;;;;;;;;;;;;;;21.27;64.20;101164.28;7286950;19;153059;-51
2021/10/28 01:13:22;;;;;;;;;;;;;;;21.23;64.38;101166.03;7286776;19;151868;-50
2021/10/28 01:15:52;;;;;;;;;;;;;;;21.22;64.65;101153.97;7286418;19;153486;-50
2021/10/28 01:18:20;;;;;;;;;;;;;;;21.20;64.55;101159.06;7287380;19;153394;-50
2021/10/28 01:20:49;;;;;;;;;;;;;;;21.19;64.19;101159.38;7284946;19;152123;-50
2021/10/28 01:23:21;;;;;;;;;;;;;;;21.17;63.89;101154.03;7286003;19;152730;-50
2021/10/28 01:25:50;;;;;;;;;;;;;;;21.17;64.31;101158.84;7294039;19;153388;-51
2021/10/28 01:28:17;;;;;;;;;;;;;;;21.16;64.55;101154.38;7284446;19;153512;-51
2021/10/28 01:30:46;;;;;;;;;;;;;;;21.14;64.40;101154.69;7284797;19;154512;-51
2021/10/28 01:33:13;;;;;;;;;;;;;;;21.15;64.29;101161.13;7285159;19;152383;-51
2021/10/28 01:35:40;;;;;;;;;;;;;;;21.11;64.39;101155.28;7285573;19;152980;-50
2021/10/28 01:38:08;;;;;;;;;;;;;;;21.11;64.25;101149.66;7286413;19;153934;-51
2021/10/28 01:40:35;;;;;;;;;;;;;;;21.11;64.55;101149.66;7285378;19;151524;-50
2021/10/28 01:43:02;;;;;;;;;;;;;;;21.09;64.59;101151.91;7287562;19;153270;-51
2021/10/28 01:45:29;;;;;;;;;;;;;;;21.08;64.10;101150.25;7286434;19;153302;-50
2021/10/28 01:47:56;;;;;;;;;;;;;;;21.06;64.31;101146.91;7292856;19;151975;-50
2021/10/28 01:50:23;;;;;;;;;;;;;;;21.05;64.52;101142.44;7286303;19;152520;-51
2021/10/28 01:52:49;;;;;;;;;;;;;;;21.04;64.36;101137.94;7286844;19;151523;-50
2021/10/28 01:55:16;;;;;;;;;;;;;;;21.05;64.65;101141.59;7285065;19;153341;-51
2021/10/28 01:57:43;;;;;;;;;;;;;;;21.04;64.58;101137.13;7285490;19;153838;-51
2021/10/28 02:00:13;;;;;;;;;;;;;;;21.02;64.22;101137.44;7285687;19;151799;-51
2021/10/28 02:02:42;;;;;;;;;;;;;;;21.00;64.50;101141.69;7284760;19;153154;-51
2021/10/28 02:05:10;;;;;;;;;;;;;;;20.98;64.31;101138.38;7283543;19;153250;-51
2021/10/28 02:07:37;;;;;;;;;;;;;;;21.00;64.63;101133.25;7286741;19;151855;-50
2021/10/28 02:10:05;;;;;;;;;;;;;;;20.98;64.55;101127.97;7293327;19;152617;-51
2021/10/28 02:12:33;;;;;;;;;;;;;;;20.94;64.55;101123.28;7284953;19;152128;-51
2021/10/28 02:15:00;;;;;;;;;;;;;;;20.93;64.71;101128.06;7284555;19;153486;-51
2021/10/28 02:17:27;;;;;;;;;;;;;;;20.92;64.73;101125.53;7282774;19;153643;-50
2021/10/28 02:19:54;;;;;;;;;;;;;;;20.92;64.24;101117.09;7286356;19;151779;-50
2021/10/28 02:22:20;;;;;;;;;;;;;;;20.92;64.22;101117.09;7282268;19;153216;-50
2021/10/28 02:24:47;;;;;;;;;;;;;;;20.88;64.42;101114.09;7285017;19;154089;-51
2021/10/28 02:27:14;;;;;;;;;;;;;;;20.89;64.98;101103.69;7285922;19;151854;-51
2021/10/28 02:29:41;;;;;;;;;;;;;;;20.85;64.85;101111.88;7286216;19;153256;-50
2021/10/28 02:32:09;;;;;;;;;;;;;;;20.86;64.54;101113.53;7291771;19;153366;-50
2021/10/28 02:34:36;;;;;;;;;;;;;;;20.83;64.68;101115.00;7283632;19;152023;-51
2021/10/28 02:37:03;;;;;;;;;;;;;;;20.81;64.67;101099.59;7282158;19;153729;-51
2021/10/28 02:39:31;;;;;;;;;;;;;;;20.80;64.99;101097.94;7284601;19;151841;-50
2021/10/28 02:41:57;;;;;;;;;;;;;;;20.78;64.97;101095.44;7282664;19;152759;-50
2021/10/28 02:44:24;;;;;;;;;;;;;;;20.76;65.02;101089.28;7284587;19;153506;-50
2021/10/28 02:46:52;;;;;;;;;;;;;;;20.75;65.02;101089.59;7285995;19;152076;-50
2021/10/28 02:49:18;;;;;;;;;;;;;;;20.75;65.18;101084.81;7282939;19;153514;-50
2021/10/28 02:51:47;;;;;;;;;;;;;;;20.75;64.90;101081.19;7281650;19;152344;-50
2021/10/28 02:54:14;;;;;;;;;;;;;;;20.76;65.18;101077.22;7298571;19;151733;-50
2021/10/28 02:56:41;;;;;;;;;;;;;;;20.72;65.39;101077.00;7287984;19;153433;-50
2021/10/28 02:59:08;;;;;;;;;;;;;;;20.71;65.43;101069.72;7289977;19;151764;-51
2021/10/28 03:01:45;;;;;;;;;;;;;;;20.71;65.60;101066.09;7288579;19;152638;-51
2021/10/28 03:04:13;;;;;;;;;;;;;;;20.70;65.55;101072.84;7290981;19;153382;-50
2021/10/28 03:06:41;;;;;;;;;;;;;;;20.68;65.77;101066.69;7290101;19;151834;-51
2021/10/28 03:09:09;;;;;;;;;;;;;;;20.68;65.97;101058.25;7290197;19;152842;-50
2021/10/28 03:11:36;;;;;;;;;;;;;;;20.68;66.02;101061.06;7287222;19;154145;-52
2021/10/28 03:14:03;;;;;;;;;;;;;;;20.65;65.72;101053.25;7299236;19;151942;-52
2021/10/28 03:26:45;;;;;;;;;;;;;;;20.64;66.53;101045.97;7290305;19;152494;-50
2021/10/28 03:29:12;;;;;;;;;;;;;;;20.64;66.69;101046.81;7291785;19;153208;-50
2021/10/28 03:31:39;;;;;;;;;;;;;;;20.64;66.53;101037.56;7290034;19;153088;-50
2021/10/28 03:34:05;;;;;;;;;;;;;;;20.62;67.19;101040.69;7290470;19;153750;-51
2021/10/28 03:36:53;;;;;;;;;;;;;;;20.59;66.83;101024.44;7296566;19;152793;-51
2021/10/28 03:42:02;;;;;;;;;;;;;;;20.58;67.20;101014.34;7289584;19;152819;-50
2021/10/28 04:00:14;;;;;;;;;;;;;;;20.52;67.44;101023.19;7295488;19;153292;-50
2021/10/28 04:31:03;;;;;;;;;;;;;;;20.46;67.69;101024.41;7287826;19;152739;-50
2021/10/28 04:33:30;;;;;;;;;;;;;;;20.44;67.19;101024.72;7288603;19;153560;-50
2021/10/28 04:35:57;;;;;;;;;;;;;;;20.44;67.03;101030.34;7286832;19;151912;-51
2021/10/28 04:38:24;;;;;;;;;;;;;;;20.43;67.57;101034.28;7289989;19;152968;-51
2021/10/28 04:40:51;;;;;;;;;;;;;;;20.42;67.17;101024.19;7287465;19;152964;-51
2021/10/28 04:43:17;;;;;;;;;;;;;;;20.41;67.69;101014.91;7286008;19;151878;-49
2021/10/28 04:45:44;;;;;;;;;;;;;;;20.41;67.43;101028.13;7295649;19;153118;-48
2021/10/28 04:48:11;;;;;;;;;;;;;;;20.41;67.12;101022.50;7287980;19;152143;-49
2021/10/28 04:50:38;;;;;;;;;;;;;;;20.41;67.23;101025.31;7288452;19;152377;-49
2021/10/28 04:53:05;;;;;;;;;;;;;;;20.41;67.25;101028.94;7286907;19;153653;-48
2021/10/28 04:55:32;;;;;;;;;;;;;;;20.39;67.20;101019.19;7287066;19;151767;-48
2021/10/28 04:57:58;;;;;;;;;;;;;;;20.38;67.25;101023.97;7287926;19;153018;-49
2021/10/28 05:00:25;;;;;;;;;;;;;;;20.39;67.34;101033.22;7285608;19;152478;-49
2021/10/28 05:02:52;;;;;;;;;;;;;;;20.36;67.38;101031.84;7286157;19;152307;-49
2021/10/28 05:05:19;;;;;;;;;;;;;;;20.37;67.83;101024.25;7289057;19;152725;-48
2021/10/28 05:07:46;;;;;;;;;;;;;;;20.35;67.41;101023.75;7294690;19;152508;-50
2021/10/28 05:10:13;;;;;;;;;;;;;;;20.37;67.85;101021.44;7288881;19;152773;-50
2021/10/28 05:12:39;;;;;;;;;;;;;;;20.34;67.69;101016.47;7287208;19;153590;-49
2021/10/28 05:15:06;;;;;;;;;;;;;;;20.35;67.87;101015.31;7284849;19;151979;-49
2021/10/28 05:17:33;;;;;;;;;;;;;;;20.34;67.92;101022.91;7287375;19;153444;-49
2021/10/28 05:20:00;;;;;;;;;;;;;;;20.33;67.59;101018.44;7285947;19;153174;-49
2021/10/28 05:22:27;;;;;;;;;;;;;;;20.32;67.83;101018.72;7288000;19;151915;-49
2021/10/28 05:24:54;;;;;;;;;;;;;;;20.35;67.60;101015.31;7288348;19;153078;-49
2021/10/28 05:27:21;;;;;;;;;;;;;;;20.33;68.27;101015.63;7294674;19;153497;-48
2021/10/28 05:30:00;;;;;;;;;;;;;;;20.33;67.84;101017.59;7288176;19;153998;-49
2021/10/28 05:32:27;;;;;;;;;;;;;;;20.32;67.90;101016.75;7284807;19;153905;-48
2021/10/28 05:34:58;;;;;;;;;;;;;;;20.32;68.11;101007.50;7287823;19;151576;-49
2021/10/28 05:37:27;;;;;;;;;;;;;;;20.32;68.20;101016.75;7286581;19;152625;-49
2021/10/28 05:39:55;;;;;;;;;;;;;;;20.30;67.96;101002.22;7286113;19;153605;-49
2021/10/28 05:42:24;;;;;;;;;;;;;;;20.30;68.29;101001.38;7286996;19;152178;-49
2021/10/28 05:44:50;;;;;;;;;;;;;;;20.31;68.48;100995.44;7285406;19;153305;-50
2021/10/28 05:47:17;;;;;;;;;;;;;;;20.28;68.67;100993.22;7285286;19;153345;-49
2021/10/28 05:49:45;;;;;;;;;;;;;;;20.28;68.49;100984.81;7295424;19;151483;-49
2021/10/28 05:52:11;;;;;;;;;;;;;;;20.30;68.50;100984.53;7285421;19;153449;-48
2021/10/28 05:54:38;;;;;;;;;;;;;;;20.31;68.43;100991.78;7284997;19;151966;-49
2021/10/28 05:57:06;;;;;;;;;;;;;;;20.32;68.14;100985.06;7287121;19;153579;-48
2021/10/28 05:59:33;;;;;;;;;;;;;;;20.29;68.45;100978.06;7282136;19;154539;-48
2021/10/28 06:01:59;;;;;;;;;;;;;;;20.28;68.82;100970.78;7287640;19;151747;-48
2021/10/28 06:04:27;;;;;;;;;;;;;;;20.27;68.48;100968.25;7284754;19;153415;-49
2021/10/28 06:06:53;;;;;;;;;;;;;;;20.28;68.60;100965.16;7283508;19;154201;-48
2021/10/28 06:09:20;;;;;;;;;;;;;;;20.28;68.39;100958.72;7284574;19;151903;-48
2021/10/28 06:11:48;;;;;;;;;;;;;;;20.26;68.44;100967.44;7292910;19;153662;-48
2021/10/28 06:14:22;;;;;;;;;;;;;;;20.26;68.55;100958.22;7285739;19;152181;-48
2021/10/28 06:16:53;;;;;;;;;;;;;;;20.34;68.69;100954.72;7284572;19;152354;-49
2021/10/28 06:19:20;;;;;;;;;;;;;;;20.41;68.73;100950.38;7283688;19;153492;-48
2021/10/28 06:21:47;;;;;;;;;;;;;;;20.47;68.78;100953.09;7285891;19;151747;-50
2021/10/28 06:24:14;;;;;;;;;;;;;;;20.50;69.11;100953.31;7283038;19;153354;-49
2021/10/28 06:26:41;;;;;;;;;;;;;;;20.55;68.94;100942.00;7284613;19;153941;-49
2021/10/28 06:29:08;;;;;;;;;;;;;;;20.62;69.69;100952.81;7282102;19;153250;-49
2021/10/28 06:31:34;;;;;;;;;;;;;;;20.68;70.03;100955.22;7285801;19;151652;-48
2021/10/28 06:34:07;;;;;;;;;;;;;;;20.74;69.88;100947.53;7290804;19;153386;-48
2021/10/28 06:36:36;;;;;;;;;;;;;;;20.82;69.97;100949.63;7284371;19;151753;-48
2021/10/28 06:39:04;;;;;;;;;;;;;;;20.90;70.07;100951.69;7285721;19;154658;-48
2021/10/28 06:41:31;;;;;;;;;;;;;;;20.98;69.22;100951.00;7285711;19;151940;-49
2021/10/28 06:44:00;;;;;;;;;;;;;;;21.03;69.25;100947.25;7283150;19;153118;-49
2021/10/28 06:46:27;;;;;;;;;;;;;;;21.07;68.91;100949.13;7282180;19;152885;-48
2021/10/28 06:48:54;;;;;;;;;;;;;;;21.12;68.70;100940.56;7284662;19;151846;-48
2021/10/28 06:51:22;;;;;;;;;;;;;;;21.17;68.82;100936.84;7285259;19;152662;-48
2021/10/28 07:03:49;;;;;;;;;;;;;;;21.36;67.28;100934.75;7283862;19;153263;-50
2021/10/28 07:08:50;;;;;;;;;;;;;;;21.42;67.07;100924.25;7284548;19;151779;-49
2021/10/28 07:11:23;;;;;;;;;;;;;;;21.48;67.04;100923.00;7285345;19;152103;-49
2021/10/28 07:13:51;;;;;;;;;;;;;;;21.48;66.75;100921.00;7284010;19;153860;-49
2021/10/28 07:16:25;;;;;;;;;;;;;;;21.49;66.47;100914.22;7292676;19;152042;-49
2021/10/28 07:18:58;;;;;;;;;;;;;;;21.51;66.83;100913.91;7281574;19;154317;-49
2021/10/28 07:21:40;;;;;;;;;;;;;;;21.52;66.46;100913.59;7282760;19;152225;-50
2021/10/28 07:24:22;;;;;;;;;;;;;;;21.53;66.33;100917.25;7282792;19;152694;-49
2021/10/28 07:27:05;;;;;;;;;;;;;;;21.54;66.21;100913.28;7282300;19;153421;-49
2021/10/28 08:15:36;;;;;;;;;;;;;;;21.54;64.87;100871.09;7288668;19;153265;-50
2021/10/28 08:18:24;;;;;;;;;;;;;;;21.53;64.96;100863.84;7289652;19;151663;-49
2021/10/28 08:21:00;;;;;;;;;;;;;;;21.54;65.01;100860.69;7288029;19;152863;-49
2021/10/28 08:23:34;;;;;;;;;;;;;;;21.52;64.71;100867.78;7286091;19;154889;-49
2021/10/28 08:31:00;;;;;;;;;;;;;;;21.48;64.68;100859.16;7289123;19;151808;-49
2021/10/28 08:33:27;;;;;;;;;;;;;;;21.49;64.72;100851.53;7289152;19;153516;-50
2021/10/28 08:36:02;;;;;;;;;;;;;;;21.50;65.15;100858.84;7287614;19;153972;-50
2021/10/28 08:38:29;;;;;;;;;;;;;;;21.48;64.90;100847.09;7285482;19;152279;-50
2021/10/28 08:40:56;;;;;;;;;;;;;;;21.46;64.92;100847.41;7289237;19;152798;-50
2021/10/28 08:43:26;;;;;;;;;;;;;;;21.44;64.89;100846.06;7284957;19;153195;-50
2021/10/28 08:45:54;;;;;;;;;;;;;;;21.44;65.17;100849.69;7287439;19;151904;-50
2021/10/28 08:48:22;;;;;;;;;;;;;;;21.45;65.19;100842.91;7294479;19;153356;-50
2021/10/28 08:51:02;;;;;;;;;;;;;;;21.43;64.76;100842.41;7285970;19;152118;-49
2021/10/28 08:53:43;;;;;;;;;;;;;;;21.41;64.62;100846.69;7288327;19;153701;-50
2021/10/28 08:56:25;;;;;;;;;;;;;;;21.35;65.07;100834.72;7287522;19;153983;-50
2021/10/28 08:59:55;;;;;;;;;;;;;;;21.32;64.91;100826.09;7288305;19;151712;-50
2021/10/28 09:23:54;;;;;;;;;;;;;;;21.19;64.33;100820.22;7284783;19;152191;-50
2021/10/28 09:27:34;;;;;;;;;;;;;;;21.18;62.07;100820.50;7286406;19;152317;-50
2021/10/28 09:32:38;;;;;;;;;;;;;;;21.03;60.57;100807.59;7293922;19;154258;-50
2021/10/28 09:35:22;;;;;;;;;;;;;;;20.96;61.05;100806.38;7285035;19;152447;-50
2021/10/28 09:45:55;;;;;;;;;;;;;;;20.94;60.11;100794.66;7283987;19;154328;-50
2021/10/28 09:48:32;;;;;;;;;;;;;;;20.90;60.01;100788.81;7287973;19;151997;-50
2021/10/28 09:51:01;;;;;;;;;;;;;;;20.87;59.58;100781.03;7286773;19;153029;-50
2021/10/28 09:53:34;;;;;;;;;;;;;;;20.89;59.30;100786.34;7286093;19;154092;-51
2021/10/28 09:58:33;;;;;;;;;;;;;;;20.82;59.21;100793.19;7285991;19;153264;-50
2021/10/28 10:01:01;;;;;;;;;;;;;;;20.83;58.17;100791.22;7283473;19;152157;-50
2021/10/28 10:03:32;;;;;;;;;;;;;;;20.76;58.66;100783.22;7287058;19;152721;-51
2021/10/28 10:06:02;;;;;;;;;;;;;;;20.75;58.93;100806.84;7279744;19;154141;-51
2021/10/28 10:08:30;;;;;;;;;;;;;;;20.75;59.68;100790.00;7286870;19;151884;-50
2021/10/28 10:10:57;;;;;;;;;;;;;;;20.73;59.03;100792.28;7285147;19;151719;-50
2021/10/28 10:13:24;;;;;;;;;;;;;;;20.70;59.39;100781.69;7282721;19;153700;-49
2021/10/28 10:15:53;;;;;;;;;;;;;;;20.79;58.71;100776.97;7284975;19;151583;-49
2021/10/28 10:18:23;;;;;;;;;;;;;;;20.85;58.75;100783.28;7291244;19;153087;-50
2021/10/28 10:20:55;;;;;;;;;;;;;;;20.86;59.05;100785.81;7284747;19;152071;-50
2021/10/28 10:29:04;;;;;;;;;;;;;;;20.81;59.16;100776.66;7281107;19;152118;-50
2021/10/28 11:03:06;;;;;;;;;;;;;;;20.76;59.10;100774.78;7283024;19;153289;-50
2021/10/28 11:21:08;;;;;;;;;;;;;;;20.44;58.75;100730.03;7290013;19;153637;-50
2021/10/28 11:31:14;;;;;;;;;;;;;;;20.35;59.30;100724.31;7290247;19;151811;-49
2021/10/28 12:01:24;;;;;;;;;;;;;;;20.35;59.10;100720.69;7288358;19;151856;-50
2021/10/28 12:15:27;;;;;;;;;;;;;;;20.28;59.33;100631.28;7288831;19;153429;-51
2021/10/28 12:25:37;;;;;;;;;;;;;;;20.27;59.56;100638.03;7282257;19;153291;-49
2021/10/28 12:28:34;;;;;;;;;;;;;;;20.34;59.71;100630.06;7288033;19;151791;-50
2021/10/28 12:46:14;;;;;;;;;;;;;;;20.31;59.56;100610.22;7283056;19;155399;-50
2021/10/28 12:54:01;;;;;;;;;;;;;;;20.34;59.54;100598.38;7288221;19;153325;-50
2021/10/28 13:54:51;;;;;;;;;;;;;;;20.57;59.04;100496.22;7283808;19;153546;-50
2021/10/28 13:59:59;;;;;;;;;;;;;;;20.58;58.79;100486.63;7286089;19;153292;-50
2021/10/28 14:15:28;;;;;;;;;;;;;;;20.54;58.98;100477.19;7282987;19;153673;-50
2021/10/28 14:33:58;;;;;;;;;;;;;;;20.48;58.83;100456.03;7284101;19;153587;-49
2021/10/28 15:28:59;;;;;;;;;;;;;;;20.33;59.78;100403.13;7290435;19;153180;-50
2021/10/28 15:39:09;;;;;;;;;;;;;;;20.31;59.42;100399.78;7290773;19;152101;-51
2021/10/28 15:50:16;;;;;;;;;;;;;;;20.29;59.46;100380.47;7290720;19;152925;-51
2021/10/28 15:55:06;;;;;;;;;;;;;;;20.26;59.27;100381.09;7290493;19;151763;-50
2021/10/28 15:57:46;;;;;;;;;;;;;;;20.25;59.75;100384.22;7288080;19;152421;-50
2021/10/28 16:00:39;;;;;;;;;;;;;;;20.24;59.55;100374.97;7292745;19;151543;-50
2021/10/28 16:23:34;;;;;;;;;;;;;;;20.67;59.70;100371.63;7287789;19;153192;-50
2021/10/28 16:26:02;;;;;;;;;;;;;;;20.70;59.60;100366.19;7284674;19;154170;-49
2021/10/28 16:28:30;;;;;;;;;;;;;;;20.74;59.57;100371.97;7288309;19;151852;-50
2021/10/28 16:30:57;;;;;;;;;;;;;;;20.78;59.53;100364.53;7288129;19;151921;-50
2021/10/28 16:33:24;;;;;;;;;;;;;;;20.79;59.14;100367.03;7284944;19;154569;-50
2021/10/28 16:35:51;;;;;;;;;;;;;;;20.84;58.90;100369.72;7288380;19;152203;-50
2021/10/28 16:38:20;;;;;;;;;;;;;;;20.87;58.92;100368.22;7287676;19;153375;-50
2021/10/28 16:40:47;;;;;;;;;;;;;;;20.89;59.13;100371.53;7286067;19;153881;-49
2021/10/28 16:43:13;;;;;;;;;;;;;;;20.92;58.96;100368.06;7295680;19;152570;-50
2021/10/28 16:45:42;;;;;;;;;;;;;;;20.96;58.95;100357.00;7286012;19;152589;-49
2021/10/28 16:48:09;;;;;;;;;;;;;;;20.97;58.75;100370.75;7284336;19;151967;-51
2021/10/28 16:50:37;;;;;;;;;;;;;;;21.00;58.54;100369.25;7286873;19;153161;-50
2021/10/28 16:53:04;;;;;;;;;;;;;;;21.01;58.66;100366.13;7286732;19;153651;-51
2021/10/28 16:55:51;;;;;;;;;;;;;;;21.03;58.75;100369.41;7285684;19;151831;-50
2021/10/28 16:58:18;;;;;;;;;;;;;;;21.04;58.75;100362.66;7285534;19;152700;-50
2021/10/28 17:00:47;;;;;;;;;;;;;;;21.05;58.26;100357.88;7284209;19;153836;-50
2021/10/28 17:03:15;;;;;;;;;;;;;;;21.07;58.36;100361.19;7284561;19;152226;-50
2021/10/28 17:05:44;;;;;;;;;;;;;;;21.07;58.20;100359.22;7291584;19;153525;-50
2021/10/28 17:08:10;;;;;;;;;;;;;;;21.08;58.36;100352.41;7281694;19;152246;-50
2021/10/28 17:10:38;;;;;;;;;;;;;;;21.09;57.99;100354.06;7286636;19;152485;-50
2021/10/28 17:13:05;;;;;;;;;;;;;;;21.11;58.32;100348.97;7283271;19;153605;-50
2021/10/28 17:15:32;;;;;;;;;;;;;;;21.12;57.86;100349.81;7286689;19;151954;-49
2021/10/28 17:17:59;;;;;;;;;;;;;;;21.13;58.05;100343.03;7285065;19;152617;-50
2021/10/28 17:20:31;;;;;;;;;;;;;;;21.13;57.72;100345.84;7282144;19;154154;-49
2021/10/28 17:22:58;;;;;;;;;;;;;;;21.13;58.15;100351.47;7285574;19;152723;-50
2021/10/28 17:25:26;;;;;;;;;;;;;;;21.13;57.96;100346.69;7284101;19;151677;-50
2021/10/28 17:27:53;;;;;;;;;;;;;;;21.14;58.09;100347.50;7291173;19;154007;-50
2021/10/28 17:30:21;;;;;;;;;;;;;;;21.14;57.80;100347.50;7286745;19;152608;-49
2021/10/28 17:32:54;;;;;;;;;;;;;;;21.13;58.01;100343.88;7285673;19;153424;-50
2021/10/28 17:35:20;;;;;;;;;;;;;;;21.12;57.77;100338.56;7283950;19;151974;-51
2021/10/28 17:37:47;;;;;;;;;;;;;;;21.13;58.03;100331.81;7283949;19;153098;-50
2021/10/28 17:40:15;;;;;;;;;;;;;;;21.12;57.72;100336.56;7285024;19;154284;-50
2021/10/28 17:42:43;;;;;;;;;;;;;;;21.13;58.20;100334.59;7284305;19;151913;-51
2021/10/28 17:45:12;;;;;;;;;;;;;;;21.11;58.04;100334.09;7282302;19;153070;-50
2021/10/28 17:47:41;;;;;;;;;;;;;;;21.11;58.18;100334.09;7283311;19;153303;-51
2021/10/28 17:50:11;;;;;;;;;;;;;;;21.10;58.27;100324.84;7293316;19;151809;-50
2021/10/28 17:52:38;;;;;;;;;;;;;;;21.10;58.25;100322.03;7284647;19;153301;-50
2021/10/28 17:55:07;;;;;;;;;;;;;;;21.11;57.75;100325.66;7278292;19;151710;-50
2021/10/28 17:57:35;;;;;;;;;;;;;;;21.10;57.87;100329.63;7284070;19;152561;-50
2021/10/28 18:00:04;;;;;;;;;;;;;;;21.09;58.22;100325.16;7283206;19;153857;-50
2021/10/28 18:02:33;;;;;;;;;;;;;;;21.09;58.12;100319.53;7284907;19;151862;-50
2021/10/28 18:05:00;;;;;;;;;;;;;;;21.06;58.25;100315.41;7285480;19;152797;-50
2021/10/28 18:07:30;;;;;;;;;;;;;;;21.05;58.41;100312.91;7282677;19;154280;-50
2021/10/28 18:09:58;;;;;;;;;;;;;;;21.06;58.08;100314.59;7290588;19;152383;-50
2021/10/28 18:12:28;;;;;;;;;;;;;;;21.07;58.51;100316.25;7284163;19;154133;-50
2021/10/28 18:14:55;;;;;;;;;;;;;;;21.06;58.23;100306.16;7282620;19;152021;-51
2021/10/28 18:17:22;;;;;;;;;;;;;;;21.04;58.65;100308.44;7281958;19;153569;-50
2021/10/28 18:19:50;;;;;;;;;;;;;;;21.06;58.79;100304.19;7284110;19;153890;-50
2021/10/28 18:22:17;;;;;;;;;;;;;;;21.06;58.50;100297.72;7283696;19;153361;-50
2021/10/28 18:24:45;;;;;;;;;;;;;;;21.06;58.77;100292.94;7281693;19;154122;-50
2021/10/28 18:27:13;;;;;;;;;;;;;;;21.03;59.09;100293.56;7281480;19;153520;-50
2021/10/28 18:29:40;;;;;;;;;;;;;;;21.05;58.68;100294.09;7284200;19;152416;-50
2021/10/28 18:32:07;;;;;;;;;;;;;;;21.03;58.43;100289.97;7289243;19;153136;-50
2021/10/28 18:34:35;;;;;;;;;;;;;;;21.03;58.32;100284.34;7284979;19;151805;-50
2021/10/28 18:37:33;;;;;;;;;;;;;;;21.00;58.65;100283.00;7282616;19;152824;-50
2021/10/28 18:40:00;;;;;;;;;;;;;;;20.97;58.79;100280.03;7282108;19;153157;-50
2021/10/28 18:42:27;;;;;;;;;;;;;;;20.95;58.69;100273.91;7282942;19;152213;-51
2021/10/28 18:44:54;;;;;;;;;;;;;;;20.90;58.47;100269.28;7284685;19;152912;-50
2021/10/28 18:47:40;;;;;;;;;;;;;;;20.88;58.98;100271.59;7282803;19;153487;-51
2021/10/28 18:50:07;;;;;;;;;;;;;;;20.84;59.10;100268.63;7283489;19;151848;-49
2021/10/28 18:52:34;;;;;;;;;;;;;;;20.81;58.59;100271.22;7282699;19;153487;-50
2021/10/28 18:55:02;;;;;;;;;;;;;;;20.78;58.69;100258.69;7287877;19;152279;-50
2021/10/28 18:57:29;;;;;;;;;;;;;;;20.77;58.90;100257.03;7284029;19;153212;-50
2021/10/28 18:59:56;;;;;;;;;;;;;;;20.76;59.12;100258.19;7279060;19;154186;-50
2021/10/28 19:02:26;;;;;;;;;;;;;;;20.77;58.94;100261.81;7281906;19;151981;-50
2021/10/28 19:04:53;;;;;;;;;;;;;;;20.74;59.01;100256.88;7279063;19;152776;-51
2021/10/28 19:07:20;;;;;;;;;;;;;;;20.73;59.06;100249.59;7279480;19;154731;-50
2021/10/28 19:09:48;;;;;;;;;;;;;;;20.72;59.30;100253.53;7282742;19;151659;-50
2021/10/28 19:12:15;;;;;;;;;;;;;;;20.71;59.29;100249.94;7281611;19;153536;-50
2021/10/28 19:14:43;;;;;;;;;;;;;;;20.69;59.43;100243.81;7281895;19;153383;-51
2021/10/28 19:17:11;;;;;;;;;;;;;;;20.69;59.31;100237.38;7290491;19;151784;-50
2021/10/28 19:19:38;;;;;;;;;;;;;;;20.68;59.17;100238.50;7279303;19;153226;-50
2021/10/28 19:22:05;;;;;;;;;;;;;;;20.69;59.30;100234.56;7279686;19;151885;-49
2021/10/28 19:24:33;;;;;;;;;;;;;;;20.69;59.42;100234.56;7281609;19;152170;-50
2021/10/28 19:27:00;;;;;;;;;;;;;;;20.66;59.33;100233.25;7280004;19;154964;-50
2021/10/28 19:29:27;;;;;;;;;;;;;;;20.67;59.29;100228.47;7279889;19;151635;-50
2021/10/28 19:32:00;;;;;;;;;;;;;;;20.69;57.31;100224.16;7281388;19;153101;-50
2021/10/28 19:34:34;;;;;;;;;;;;;;;20.66;57.58;100221.19;7279171;19;152236;-50
2021/10/28 19:40:00;;;;;;;;;;;;;;;20.59;56.79;100215.22;7295645;19;154157;-50
2021/10/28 19:47:17;;;;;;;;;;;;;;;20.54;56.83;100190.09;7287527;19;154254;-50
2021/10/28 19:49:45;;;;;;;;;;;;;;;20.49;57.94;100191.06;7288739;19;151596;-50
2021/10/28 19:52:13;;;;;;;;;;;;;;;20.44;57.28;100182.84;7288845;19;152565;-51
2021/10/28 19:54:43;;;;;;;;;;;;;;;20.44;57.86;100182.00;7286065;19;153252;-50
2021/10/28 19:57:16;;;;;;;;;;;;;;;20.42;58.22;100177.56;7286741;19;152521;-49
2021/10/28 19:59:48;;;;;;;;;;;;;;;20.42;58.11;100180.34;7288141;19;153485;-50
2021/10/28 20:02:26;;;;;;;;;;;;;;;20.44;57.99;100168.81;7293578;19;153827;-50
2021/10/28 20:05:19;;;;;;;;;;;;;;;20.40;58.34;100162.16;7289335;19;152860;-50
2021/10/28 20:08:00;;;;;;;;;;;;;;;20.38;58.62;100156.09;7285504;19;153966;-50
2021/10/28 20:13:25;;;;;;;;;;;;;;;20.37;58.79;100149.63;7286625;19;153696;-51
2021/10/28 20:20:56;;;;;;;;;;;;;;;20.34;58.25;100141.88;7288763;19;152791;-50
2021/10/28 20:23:23;;;;;;;;;;;;;;;20.32;58.60;100132.13;7294538;19;153983;-50
2021/10/28 20:25:50;;;;;;;;;;;;;;;20.31;58.69;100127.66;7287914;19;153044;-50
2021/10/28 20:28:18;;;;;;;;;;;;;;;20.32;58.61;100132.13;7285590;19;154057;-49
2021/10/28 20:30:53;;;;;;;;;;;;;;;20.30;58.51;100123.22;7286799;19;151886;-50
2021/10/28 20:33:20;;;;;;;;;;;;;;;20.29;58.98;100121.53;7288343;19;152685;-50
2021/10/28 20:38:18;;;;;;;;;;;;;;;20.30;59.16;100132.47;7287220;19;151745;-50
2021/10/28 20:40:46;;;;;;;;;;;;;;;20.29;59.37;100122.38;7284511;19;151943;-50
2021/10/28 20:43:14;;;;;;;;;;;;;;;20.28;59.34;100114.28;7285219;19;153231;-50
2021/10/28 20:45:41;;;;;;;;;;;;;;;20.30;59.58;100117.63;7294314;19;153227;-49
2021/10/28 20:48:08;;;;;;;;;;;;;;;20.26;59.79;100108.97;7282167;19;154131;-51
2021/10/28 20:50:36;;;;;;;;;;;;;;;20.26;59.72;100114.59;7288377;19;151936;-50
2021/10/28 20:53:03;;;;;;;;;;;;;;;20.27;59.72;100105.03;7285264;19;153278;-51
2021/10/28 20:55:30;;;;;;;;;;;;;;;20.29;59.94;100107.50;7284685;19;154129;-51